sensor_id;sensor_type;location;lat;lon;timestamp;P1;durP1;ratioP1;P2;durP2;ratioP2
68432;SDS011;55412;51.350;17.056;2022-10-28T00:01:12;20.73;;;11.80;;
68432;SDS011;55412;51.350;17.056;2022-10-28T00:03:50;20.48;;;11.23;;
68432;SDS011;55412;51.350;17.056;2022-10-28T00:06:25;21.45;;;10.18;;
68432;SDS011;55412;51.350;17.056;2022-10-28T00:08:56;18.38;;;11.23;;
68432;SDS011;55412;51.350;17.056;2022-10-28T00:11:32;18.90;;;10.73;;
68432;SDS011;55412;51.350;17.056;2022-10-28T00:14:00;23.93;;;11.40;;
68432;SDS011;55412;51.350;17.056;2022-10-28T00:16:31;21.83;;;11.23;;
68432;SDS011;55412;51.350;17.056;2022-10-28T00:18:59;19.80;;;10.43;;
68432;SDS011;55412;51.350;17.056;2022-10-28T00:21:28;20.15;;;11.10;;
68432;SDS011;55412;51.350;17.056;2022-10-28T00:23:56;21.35;;;10.85;;
68432;SDS011;55412;51.350;17.056;2022-10-28T00:26:24;20.57;;;11.50;;
68432;SDS011;55412;51.350;17.056;2022-10-28T00:28:53;22.30;;;11.38;;
68432;SDS011;55412;51.350;17.056;2022-10-28T00:31:26;24.65;;;11.98;;
68432;SDS011;55412;51.350;17.056;2022-10-28T00:33:54;19.20;;;11.23;;
68432;SDS011;55412;51.350;17.056;2022-10-28T00:36:23;29.63;;;10.48;;
68432;SDS011;55412;51.350;17.056;2022-10-28T00:38:52;22.70;;;11.37;;
68432;SDS011;55412;51.350;17.056;2022-10-28T00:41:24;20.20;;;10.75;;
68432;SDS011;55412;51.350;17.056;2022-10-28T00:43:54;28.63;;;11.57;;
68432;SDS011;55412;51.350;17.056;2022-10-28T00:49:08;26.98;;;11.48;;
68432;SDS011;55412;51.350;17.056;2022-10-28T00:51:44;17.10;;;10.10;;
68432;SDS011;55412;51.350;17.056;2022-10-28T00:54:16;18.05;;;9.45;;
68432;SDS011;55412;51.350;17.056;2022-10-28T00:56:45;21.13;;;9.25;;
68432;SDS011;55412;51.350;17.056;2022-10-28T00:59:18;19.85;;;9.88;;
68432;SDS011;55412;51.350;17.056;2022-10-28T01:01:49;22.20;;;9.40;;
68432;SDS011;55412;51.350;17.056;2022-10-28T01:04:15;19.43;;;9.97;;
68432;SDS011;55412;51.350;17.056;2022-10-28T01:06:41;17.77;;;9.93;;
68432;SDS011;55412;51.350;17.056;2022-10-28T01:09:07;18.27;;;9.00;;
68432;SDS011;55412;51.350;17.056;2022-10-28T01:14:53;17.33;;;7.72;;
68432;SDS011;55412;51.350;17.056;2022-10-28T01:20:43;19.90;;;8.93;;
68432;SDS011;55412;51.350;17.056;2022-10-28T01:32:59;18.70;;;9.23;;
68432;SDS011;55412;51.350;17.056;2022-10-28T01:35:55;17.90;;;9.05;;
68432;SDS011;55412;51.350;17.056;2022-10-28T01:38:40;17.00;;;9.00;;
68432;SDS011;55412;51.350;17.056;2022-10-28T01:41:34;13.60;;;8.00;;
68432;SDS011;55412;51.350;17.056;2022-10-28T01:52:27;24.50;;;9.50;;
68432;SDS011;55412;51.350;17.056;2022-10-28T01:55:03;16.27;;;8.23;;
68432;SDS011;55412;51.350;17.056;2022-10-28T01:57:36;19.55;;;9.55;;
68432;SDS011;55412;51.350;17.056;2022-10-28T02:00:05;20.30;;;10.37;;
68432;SDS011;55412;51.350;17.056;2022-10-28T02:02:32;19.73;;;9.57;;
68432;SDS011;55412;51.350;17.056;2022-10-28T02:11:43;19.40;;;8.93;;
68432;SDS011;55412;51.350;17.056;2022-10-28T02:20:55;19.90;;;8.60;;
68432;SDS011;55412;51.350;17.056;2022-10-28T02:23:31;20.30;;;9.57;;
68432;SDS011;55412;51.350;17.056;2022-10-28T02:27:09;17.00;;;9.65;;
68432;SDS011;55412;51.350;17.056;2022-10-28T02:32:05;18.27;;;9.00;;
68432;SDS011;55412;51.350;17.056;2022-10-28T02:34:43;16.42;;;9.65;;
68432;SDS011;55412;51.350;17.056;2022-10-28T02:37:22;21.55;;;9.93;;
68432;SDS011;55412;51.350;17.056;2022-10-28T02:39:56;19.52;;;9.50;;
68432;SDS011;55412;51.350;17.056;2022-10-28T02:42:34;19.37;;;9.43;;
68432;SDS011;55412;51.350;17.056;2022-10-28T02:45:14;16.20;;;8.98;;
68432;SDS011;55412;51.350;17.056;2022-10-28T02:47:45;16.45;;;8.07;;
68432;SDS011;55412;51.350;17.056;2022-10-28T02:50:44;12.27;;;7.53;;
68432;SDS011;55412;51.350;17.056;2022-10-28T02:53:27;16.25;;;8.90;;
68432;SDS011;55412;51.350;17.056;2022-10-28T02:56:01;15.53;;;8.87;;
68432;SDS011;55412;51.350;17.056;2022-10-28T02:58:37;18.77;;;9.23;;
68432;SDS011;55412;51.350;17.056;2022-10-28T03:01:05;18.67;;;9.10;;
68432;SDS011;55412;51.350;17.056;2022-10-28T03:03:31;14.55;;;7.90;;
68432;SDS011;55412;51.350;17.056;2022-10-28T03:05:57;17.38;;;9.15;;
68432;SDS011;55412;51.350;17.056;2022-10-28T03:08:23;19.27;;;8.77;;
68432;SDS011;55412;51.350;17.056;2022-10-28T03:10:51;17.13;;;7.50;;
68432;SDS011;55412;51.350;17.056;2022-10-28T03:13:17;17.83;;;8.07;;
68432;SDS011;55412;51.350;17.056;2022-10-28T03:15:43;16.30;;;7.97;;
68432;SDS011;55412;51.350;17.056;2022-10-28T03:18:09;16.00;;;7.83;;
68432;SDS011;55412;51.350;17.056;2022-10-28T03:20:34;16.38;;;7.82;;
68432;SDS011;55412;51.350;17.056;2022-10-28T03:23:01;17.63;;;9.82;;
68432;SDS011;55412;51.350;17.056;2022-10-28T03:25:27;17.27;;;8.82;;
68432;SDS011;55412;51.350;17.056;2022-10-28T03:27:52;16.07;;;7.40;;
68432;SDS011;55412;51.350;17.056;2022-10-28T03:30:18;16.73;;;7.65;;
68432;SDS011;55412;51.350;17.056;2022-10-28T03:32:45;15.63;;;8.23;;
68432;SDS011;55412;51.350;17.056;2022-10-28T03:35:10;15.90;;;8.35;;
68432;SDS011;55412;51.350;17.056;2022-10-28T03:37:39;13.65;;;7.65;;
68432;SDS011;55412;51.350;17.056;2022-10-28T03:40:08;16.90;;;8.13;;
68432;SDS011;55412;51.350;17.056;2022-10-28T03:42:35;17.02;;;8.00;;
68432;SDS011;55412;51.350;17.056;2022-10-28T03:45:01;16.00;;;7.18;;
68432;SDS011;55412;51.350;17.056;2022-10-28T03:47:28;16.42;;;8.93;;
68432;SDS011;55412;51.350;17.056;2022-10-28T03:49:54;17.00;;;8.27;;
68432;SDS011;55412;51.350;17.056;2022-10-28T03:52:23;13.23;;;6.90;;
68432;SDS011;55412;51.350;17.056;2022-10-28T03:54:49;17.40;;;7.80;;
68432;SDS011;55412;51.350;17.056;2022-10-28T03:57:15;17.13;;;8.15;;
68432;SDS011;55412;51.350;17.056;2022-10-28T03:59:41;14.52;;;7.45;;
68432;SDS011;55412;51.350;17.056;2022-10-28T04:02:07;12.50;;;7.00;;
68432;SDS011;55412;51.350;17.056;2022-10-28T04:04:33;17.42;;;8.07;;
68432;SDS011;55412;51.350;17.056;2022-10-28T04:06:59;13.75;;;7.63;;
68432;SDS011;55412;51.350;17.056;2022-10-28T04:09:25;14.52;;;7.60;;
68432;SDS011;55412;51.350;17.056;2022-10-28T04:11:51;12.68;;;6.78;;
68432;SDS011;55412;51.350;17.056;2022-10-28T04:14:20;21.57;;;7.87;;
68432;SDS011;55412;51.350;17.056;2022-10-28T04:16:46;13.48;;;7.60;;
68432;SDS011;55412;51.350;17.056;2022-10-28T04:19:12;13.55;;;6.97;;
68432;SDS011;55412;51.350;17.056;2022-10-28T04:21:38;15.48;;;6.82;;
68432;SDS011;55412;51.350;17.056;2022-10-28T04:24:04;16.00;;;6.57;;
68432;SDS011;55412;51.350;17.056;2022-10-28T04:26:30;18.95;;;7.63;;
68432;SDS011;55412;51.350;17.056;2022-10-28T04:28:56;13.38;;;7.07;;
68432;SDS011;55412;51.350;17.056;2022-10-28T04:31:22;16.90;;;7.15;;
68432;SDS011;55412;51.350;17.056;2022-10-28T04:33:48;12.68;;;6.75;;
68432;SDS011;55412;51.350;17.056;2022-10-28T04:36:14;13.67;;;6.70;;
68432;SDS011;55412;51.350;17.056;2022-10-28T04:38:40;14.48;;;7.05;;
68432;SDS011;55412;51.350;17.056;2022-10-28T04:41:07;13.73;;;6.47;;
68432;SDS011;55412;51.350;17.056;2022-10-28T04:43:37;16.17;;;6.93;;
68432;SDS011;55412;51.350;17.056;2022-10-28T04:46:03;12.83;;;6.70;;
68432;SDS011;55412;51.350;17.056;2022-10-28T04:48:30;13.07;;;6.40;;
68432;SDS011;55412;51.350;17.056;2022-10-28T04:50:57;12.63;;;6.82;;
68432;SDS011;55412;51.350;17.056;2022-10-28T04:53:23;12.52;;;6.13;;
68432;SDS011;55412;51.350;17.056;2022-10-28T04:55:49;12.90;;;7.07;;
68432;SDS011;55412;51.350;17.056;2022-10-28T04:58:15;14.20;;;5.83;;
68432;SDS011;55412;51.350;17.056;2022-10-28T05:00:41;12.70;;;6.38;;
68432;SDS011;55412;51.350;17.056;2022-10-28T05:03:07;13.90;;;6.30;;
68432;SDS011;55412;51.350;17.056;2022-10-28T05:05:33;13.65;;;7.95;;
68432;SDS011;55412;51.350;17.056;2022-10-28T05:07:59;12.83;;;6.90;;
68432;SDS011;55412;51.350;17.056;2022-10-28T05:13:42;11.00;;;5.53;;
68432;SDS011;55412;51.350;17.056;2022-10-28T05:16:08;11.25;;;6.50;;
68432;SDS011;55412;51.350;17.056;2022-10-28T05:18:34;14.85;;;6.40;;
68432;SDS011;55412;51.350;17.056;2022-10-28T05:21:00;11.30;;;6.23;;
68432;SDS011;55412;51.350;17.056;2022-10-28T05:23:26;12.45;;;6.47;;
68432;SDS011;55412;51.350;17.056;2022-10-28T05:25:52;13.00;;;6.75;;
68432;SDS011;55412;51.350;17.056;2022-10-28T05:28:18;11.15;;;6.18;;
68432;SDS011;55412;51.350;17.056;2022-10-28T05:30:45;10.10;;;5.47;;
68432;SDS011;55412;51.350;17.056;2022-10-28T05:33:11;13.03;;;5.97;;
68432;SDS011;55412;51.350;17.056;2022-10-28T05:35:38;17.45;;;6.18;;
68432;SDS011;55412;51.350;17.056;2022-10-28T05:38:04;12.82;;;6.32;;
68432;SDS011;55412;51.350;17.056;2022-10-28T05:40:31;11.38;;;6.20;;
68432;SDS011;55412;51.350;17.056;2022-10-28T05:42:58;11.65;;;5.50;;
68432;SDS011;55412;51.350;17.056;2022-10-28T05:45:28;13.33;;;5.87;;
68432;SDS011;55412;51.350;17.056;2022-10-28T05:47:54;13.85;;;6.03;;
68432;SDS011;55412;51.350;17.056;2022-10-28T05:50:20;14.05;;;6.07;;
68432;SDS011;55412;51.350;17.056;2022-10-28T05:52:47;12.95;;;5.90;;
68432;SDS011;55412;51.350;17.056;2022-10-28T05:55:16;12.35;;;5.20;;
68432;SDS011;55412;51.350;17.056;2022-10-28T05:57:44;10.83;;;6.20;;
68432;SDS011;55412;51.350;17.056;2022-10-28T06:00:11;14.60;;;6.32;;
68432;SDS011;55412;51.350;17.056;2022-10-28T06:02:39;14.25;;;5.70;;
68432;SDS011;55412;51.350;17.056;2022-10-28T06:05:06;12.25;;;5.90;;
68432;SDS011;55412;51.350;17.056;2022-10-28T06:07:34;11.73;;;6.53;;
68432;SDS011;55412;51.350;17.056;2022-10-28T06:10:01;10.27;;;6.23;;
68432;SDS011;55412;51.350;17.056;2022-10-28T06:12:29;12.13;;;6.05;;
68432;SDS011;55412;51.350;17.056;2022-10-28T06:14:55;13.20;;;6.28;;
68432;SDS011;55412;51.350;17.056;2022-10-28T06:17:21;12.25;;;5.45;;
68432;SDS011;55412;51.350;17.056;2022-10-28T06:19:47;13.30;;;5.53;;
68432;SDS011;55412;51.350;17.056;2022-10-28T06:22:13;13.97;;;6.03;;
68432;SDS011;55412;51.350;17.056;2022-10-28T06:24:39;13.00;;;6.15;;
68432;SDS011;55412;51.350;17.056;2022-10-28T06:27:05;13.05;;;5.43;;
68432;SDS011;55412;51.350;17.056;2022-10-28T06:29:32;12.60;;;5.93;;
68432;SDS011;55412;51.350;17.056;2022-10-28T06:31:59;9.53;;;4.40;;
68432;SDS011;55412;51.350;17.056;2022-10-28T06:34:25;12.30;;;4.75;;
68432;SDS011;55412;51.350;17.056;2022-10-28T06:36:51;10.70;;;5.15;;
68432;SDS011;55412;51.350;17.056;2022-10-28T06:39:17;10.65;;;5.20;;
68432;SDS011;55412;51.350;17.056;2022-10-28T06:41:44;10.65;;;4.63;;
68432;SDS011;55412;51.350;17.056;2022-10-28T06:44:10;13.07;;;5.13;;
68432;SDS011;55412;51.350;17.056;2022-10-28T06:46:36;10.98;;;5.30;;
68432;SDS011;55412;51.350;17.056;2022-10-28T06:49:02;11.98;;;3.90;;
68432;SDS011;55412;51.350;17.056;2022-10-28T06:51:30;10.63;;;4.20;;
68432;SDS011;55412;51.350;17.056;2022-10-28T06:53:56;10.13;;;4.45;;
68432;SDS011;55412;51.350;17.056;2022-10-28T06:56:23;15.63;;;5.90;;
68432;SDS011;55412;51.350;17.056;2022-10-28T06:58:49;9.80;;;5.03;;
68432;SDS011;55412;51.350;17.056;2022-10-28T07:01:19;11.70;;;5.28;;
68432;SDS011;55412;51.350;17.056;2022-10-28T07:03:46;13.80;;;5.45;;
68432;SDS011;55412;51.350;17.056;2022-10-28T07:06:13;10.63;;;5.25;;
68432;SDS011;55412;51.350;17.056;2022-10-28T07:08:40;10.57;;;5.33;;
68432;SDS011;55412;51.350;17.056;2022-10-28T07:11:06;12.30;;;5.25;;
68432;SDS011;55412;51.350;17.056;2022-10-28T07:13:32;11.93;;;5.63;;
68432;SDS011;55412;51.350;17.056;2022-10-28T07:15:59;9.73;;;4.88;;
68432;SDS011;55412;51.350;17.056;2022-10-28T07:18:26;17.60;;;4.75;;
68432;SDS011;55412;51.350;17.056;2022-10-28T07:20:56;10.53;;;4.07;;
68432;SDS011;55412;51.350;17.056;2022-10-28T07:23:24;11.82;;;4.82;;
68432;SDS011;55412;51.350;17.056;2022-10-28T07:25:54;8.43;;;4.82;;
68432;SDS011;55412;51.350;17.056;2022-10-28T07:28:21;12.98;;;4.38;;
68432;SDS011;55412;51.350;17.056;2022-10-28T07:30:59;9.48;;;5.15;;
68432;SDS011;55412;51.350;17.056;2022-10-28T07:33:26;12.70;;;4.97;;
68432;SDS011;55412;51.350;17.056;2022-10-28T07:35:52;9.32;;;4.03;;
68432;SDS011;55412;51.350;17.056;2022-10-28T07:38:20;13.23;;;5.65;;
68432;SDS011;55412;51.350;17.056;2022-10-28T07:40:46;9.88;;;5.28;;
68432;SDS011;55412;51.350;17.056;2022-10-28T07:43:12;10.20;;;5.30;;
68432;SDS011;55412;51.350;17.056;2022-10-28T07:45:38;14.50;;;4.80;;
68432;SDS011;55412;51.350;17.056;2022-10-28T07:48:04;9.38;;;4.70;;
68432;SDS011;55412;51.350;17.056;2022-10-28T07:50:31;9.68;;;4.47;;
68432;SDS011;55412;51.350;17.056;2022-10-28T07:52:58;10.50;;;4.43;;
68432;SDS011;55412;51.350;17.056;2022-10-28T07:55:24;11.65;;;3.45;;
68432;SDS011;55412;51.350;17.056;2022-10-28T07:57:50;8.37;;;3.47;;
68432;SDS011;55412;51.350;17.056;2022-10-28T08:00:16;9.73;;;2.97;;
68432;SDS011;55412;51.350;17.056;2022-10-28T08:02:48;9.60;;;3.13;;
68432;SDS011;55412;51.350;17.056;2022-10-28T08:05:15;6.93;;;3.03;;
68432;SDS011;55412;51.350;17.056;2022-10-28T08:07:41;5.53;;;2.67;;
68432;SDS011;55412;51.350;17.056;2022-10-28T08:10:07;7.93;;;2.60;;
68432;SDS011;55412;51.350;17.056;2022-10-28T08:12:33;7.45;;;2.75;;
68432;SDS011;55412;51.350;17.056;2022-10-28T08:14:59;7.53;;;2.80;;
68432;SDS011;55412;51.350;17.056;2022-10-28T08:17:26;9.75;;;3.00;;
68432;SDS011;55412;51.350;17.056;2022-10-28T08:19:53;9.73;;;2.95;;
68432;SDS011;55412;51.350;17.056;2022-10-28T08:22:19;8.60;;;2.63;;
68432;SDS011;55412;51.350;17.056;2022-10-28T08:24:45;10.65;;;2.78;;
68432;SDS011;55412;51.350;17.056;2022-10-28T08:27:14;6.13;;;2.90;;
68432;SDS011;55412;51.350;17.056;2022-10-28T08:29:40;7.88;;;2.70;;
68432;SDS011;55412;51.350;17.056;2022-10-28T08:32:06;9.15;;;2.70;;
68432;SDS011;55412;51.350;17.056;2022-10-28T08:34:36;7.67;;;2.83;;
68432;SDS011;55412;51.350;17.056;2022-10-28T08:37:02;7.63;;;2.60;;
68432;SDS011;55412;51.350;17.056;2022-10-28T08:39:28;5.90;;;3.17;;
68432;SDS011;55412;51.350;17.056;2022-10-28T08:41:58;13.00;;;3.35;;
68432;SDS011;55412;51.350;17.056;2022-10-28T08:47:54;7.63;;;2.93;;
68432;SDS011;55412;51.350;17.056;2022-10-28T08:50:53;11.65;;;3.30;;
68432;SDS011;55412;51.350;17.056;2022-10-28T08:59:12;8.93;;;3.88;;
68432;SDS011;55412;51.350;17.056;2022-10-28T09:01:45;7.87;;;3.13;;
68432;SDS011;55412;51.350;17.056;2022-10-28T09:06:57;7.50;;;3.63;;
68432;SDS011;55412;51.350;17.056;2022-10-28T09:09:23;6.78;;;2.65;;
68432;SDS011;55412;51.350;17.056;2022-10-28T09:20:59;6.97;;;2.67;;
68432;SDS011;55412;51.350;17.056;2022-10-28T09:29:05;8.20;;;3.67;;
68432;SDS011;55412;51.350;17.056;2022-10-28T09:32:00;10.95;;;3.72;;
68432;SDS011;55412;51.350;17.056;2022-10-28T09:34:45;10.02;;;3.90;;
68432;SDS011;55412;51.350;17.056;2022-10-28T09:37:28;8.40;;;3.50;;
68432;SDS011;55412;51.350;17.056;2022-10-28T09:40:21;8.73;;;3.45;;
68432;SDS011;55412;51.350;17.056;2022-10-28T09:45:32;7.93;;;3.08;;
68432;SDS011;55412;51.350;17.056;2022-10-28T09:50:56;10.57;;;3.75;;
68432;SDS011;55412;51.350;17.056;2022-10-28T09:53:42;9.88;;;4.00;;
68432;SDS011;55412;51.350;17.056;2022-10-28T09:56:16;11.03;;;4.57;;
68432;SDS011;55412;51.350;17.056;2022-10-28T09:58:43;10.77;;;3.80;;
68432;SDS011;55412;51.350;17.056;2022-10-28T10:01:11;11.93;;;3.97;;
68432;SDS011;55412;51.350;17.056;2022-10-28T10:03:42;9.70;;;3.17;;
68432;SDS011;55412;51.350;17.056;2022-10-28T10:06:14;10.77;;;3.25;;
68432;SDS011;55412;51.350;17.056;2022-10-28T10:09:00;11.93;;;3.57;;
68432;SDS011;55412;51.350;17.056;2022-10-28T10:14:11;8.45;;;2.83;;
68432;SDS011;55412;51.350;17.056;2022-10-28T10:16:52;9.40;;;2.65;;
68432;SDS011;55412;51.350;17.056;2022-10-28T10:19:25;6.68;;;3.30;;
68432;SDS011;55412;51.350;17.056;2022-10-28T10:21:52;8.80;;;2.60;;
68432;SDS011;55412;51.350;17.056;2022-10-28T10:24:23;16.23;;;3.92;;
68432;SDS011;55412;51.350;17.056;2022-10-28T10:26:59;9.85;;;2.58;;
68432;SDS011;55412;51.350;17.056;2022-10-28T10:29:34;7.57;;;2.75;;
68432;SDS011;55412;51.350;17.056;2022-10-28T10:32:03;7.95;;;2.90;;
68432;SDS011;55412;51.350;17.056;2022-10-28T10:34:44;12.43;;;2.90;;
68432;SDS011;55412;51.350;17.056;2022-10-28T10:37:36;9.00;;;2.83;;
68432;SDS011;55412;51.350;17.056;2022-10-28T10:40:24;8.85;;;2.55;;
68432;SDS011;55412;51.350;17.056;2022-10-28T10:43:18;8.25;;;2.47;;
68432;SDS011;55412;51.350;17.056;2022-10-28T10:45:52;8.05;;;2.88;;
68432;SDS011;55412;51.350;17.056;2022-10-28T10:48:28;10.57;;;3.17;;
68432;SDS011;55412;51.350;17.056;2022-10-28T10:50:56;9.02;;;2.83;;
68432;SDS011;55412;51.350;17.056;2022-10-28T10:53:37;7.80;;;3.33;;
68432;SDS011;55412;51.350;17.056;2022-10-28T10:56:06;7.22;;;2.90;;
68432;SDS011;55412;51.350;17.056;2022-10-28T10:58:36;9.15;;;3.00;;
68432;SDS011;55412;51.350;17.056;2022-10-28T11:01:05;11.30;;;3.17;;
68432;SDS011;55412;51.350;17.056;2022-10-28T11:03:34;10.50;;;3.08;;
68432;SDS011;55412;51.350;17.056;2022-10-28T11:06:25;7.30;;;2.83;;
68432;SDS011;55412;51.350;17.056;2022-10-28T11:08:58;9.70;;;3.35;;
68432;SDS011;55412;51.350;17.056;2022-10-28T11:11:35;9.52;;;3.42;;
68432;SDS011;55412;51.350;17.056;2022-10-28T11:16:55;8.02;;;3.30;;
68432;SDS011;55412;51.350;17.056;2022-10-28T11:27:18;9.90;;;3.07;;
68432;SDS011;55412;51.350;17.056;2022-10-28T11:30:04;7.90;;;3.50;;
68432;SDS011;55412;51.350;17.056;2022-10-28T11:35:31;9.57;;;3.17;;
68432;SDS011;55412;51.350;17.056;2022-10-28T11:43:53;10.27;;;3.58;;
68432;SDS011;55412;51.350;17.056;2022-10-28T11:49:26;8.13;;;3.00;;
68432;SDS011;55412;51.350;17.056;2022-10-28T11:52:16;10.88;;;3.17;;
68432;SDS011;55412;51.350;17.056;2022-10-28T11:55:33;9.00;;;2.53;;
68432;SDS011;55412;51.350;17.056;2022-10-28T12:09:44;9.27;;;4.13;;
68432;SDS011;55412;51.350;17.056;2022-10-28T12:12:32;9.27;;;2.97;;
68432;SDS011;55412;51.350;17.056;2022-10-28T12:15:20;9.63;;;2.70;;
68432;SDS011;55412;51.350;17.056;2022-10-28T12:21:02;8.45;;;2.50;;
68432;SDS011;55412;51.350;17.056;2022-10-28T12:23:57;9.40;;;2.67;;
68432;SDS011;55412;51.350;17.056;2022-10-28T12:26:30;8.02;;;2.60;;
68432;SDS011;55412;51.350;17.056;2022-10-28T12:29:15;10.10;;;2.58;;
68432;SDS011;55412;51.350;17.056;2022-10-28T12:31:54;9.90;;;2.33;;
68432;SDS011;55412;51.350;17.056;2022-10-28T12:34:31;6.43;;;2.53;;
68432;SDS011;55412;51.350;17.056;2022-10-28T12:37:05;7.57;;;2.17;;
68432;SDS011;55412;51.350;17.056;2022-10-28T12:39:55;9.57;;;2.88;;
68432;SDS011;55412;51.350;17.056;2022-10-28T12:42:32;6.55;;;2.25;;
68432;SDS011;55412;51.350;17.056;2022-10-28T12:45:09;7.53;;;1.85;;
68432;SDS011;55412;51.350;17.056;2022-10-28T12:47:54;8.55;;;2.00;;
68432;SDS011;55412;51.350;17.056;2022-10-28T12:50:30;10.37;;;1.87;;
68432;SDS011;55412;51.350;17.056;2022-10-28T12:53:31;6.47;;;1.60;;
68432;SDS011;55412;51.350;17.056;2022-10-28T12:56:14;9.32;;;1.63;;
68432;SDS011;55412;51.350;17.056;2022-10-28T12:59:00;6.65;;;1.48;;
68432;SDS011;55412;51.350;17.056;2022-10-28T13:01:39;7.03;;;1.10;;
68432;SDS011;55412;51.350;17.056;2022-10-28T13:04:10;4.97;;;0.90;;
68432;SDS011;55412;51.350;17.056;2022-10-28T13:07:24;5.45;;;1.25;;
68432;SDS011;55412;51.350;17.056;2022-10-28T13:10:12;6.78;;;1.33;;
68432;SDS011;55412;51.350;17.056;2022-10-28T13:12:59;9.40;;;1.42;;
68432;SDS011;55412;51.350;17.056;2022-10-28T13:15:37;6.55;;;1.25;;
68432;SDS011;55412;51.350;17.056;2022-10-28T13:18:28;8.37;;;1.60;;
68432;SDS011;55412;51.350;17.056;2022-10-28T13:21:23;4.90;;;1.23;;
68432;SDS011;55412;51.350;17.056;2022-10-28T13:24:29;7.68;;;1.50;;
68432;SDS011;55412;51.350;17.056;2022-10-28T13:27:12;7.05;;;1.35;;
68432;SDS011;55412;51.350;17.056;2022-10-28T13:29:39;6.68;;;1.08;;
68432;SDS011;55412;51.350;17.056;2022-10-28T13:34:59;4.55;;;1.00;;
68432;SDS011;55412;51.350;17.056;2022-10-28T13:37:46;7.03;;;1.40;;
68432;SDS011;55412;51.350;17.056;2022-10-28T13:40:20;4.63;;;1.00;;
68432;SDS011;55412;51.350;17.056;2022-10-28T13:42:56;6.20;;;1.00;;
68432;SDS011;55412;51.350;17.056;2022-10-28T13:56:19;5.22;;;1.08;;
68432;SDS011;55412;51.350;17.056;2022-10-28T14:04:23;6.18;;;1.30;;
68432;SDS011;55412;51.350;17.056;2022-10-28T14:06:59;4.78;;;0.90;;
68432;SDS011;55412;51.350;17.056;2022-10-28T14:09:34;5.55;;;1.30;;
68432;SDS011;55412;51.350;17.056;2022-10-28T14:12:03;7.43;;;1.53;;
68432;SDS011;55412;51.350;17.056;2022-10-28T14:15:34;6.38;;;1.30;;
68432;SDS011;55412;51.350;17.056;2022-10-28T14:17:45;4.53;;;1.20;;
68432;SDS011;55412;51.350;17.056;2022-10-28T14:29:00;11.38;;;1.23;;
68432;SDS011;55412;51.350;17.056;2022-10-28T14:33:37;5.45;;;1.25;;
68432;SDS011;55412;51.350;17.056;2022-10-28T14:41:37;4.22;;;1.00;;
68432;SDS011;55412;51.350;17.056;2022-10-28T14:49:46;6.80;;;1.17;;
68432;SDS011;55412;51.350;17.056;2022-10-28T14:52:41;9.48;;;1.55;;
68432;SDS011;55412;51.350;17.056;2022-10-28T14:55:18;5.50;;;1.40;;
68432;SDS011;55412;51.350;17.056;2022-10-28T15:03:42;7.17;;;1.40;;
68432;SDS011;55412;51.350;17.056;2022-10-28T15:06:45;8.77;;;2.33;;
68432;SDS011;55412;51.350;17.056;2022-10-28T15:12:05;6.30;;;1.48;;
68432;SDS011;55412;51.350;17.056;2022-10-28T15:17:13;5.37;;;1.20;;
68432;SDS011;55412;51.350;17.056;2022-10-28T15:19:47;6.85;;;1.48;;
68432;SDS011;55412;51.350;17.056;2022-10-28T15:25:00;8.68;;;1.48;;
68432;SDS011;55412;51.350;17.056;2022-10-28T15:27:34;8.63;;;1.77;;
68432;SDS011;55412;51.350;17.056;2022-10-28T15:30:03;5.80;;;1.17;;
68432;SDS011;55412;51.350;17.056;2022-10-28T15:32:38;5.53;;;1.40;;
68432;SDS011;55412;51.350;17.056;2022-10-28T15:35:33;5.07;;;1.55;;
68432;SDS011;55412;51.350;17.056;2022-10-28T15:38:04;5.82;;;1.25;;
68432;SDS011;55412;51.350;17.056;2022-10-28T15:40:53;6.78;;;1.67;;
68432;SDS011;55412;51.350;17.056;2022-10-28T15:43:22;6.77;;;1.30;;
68432;SDS011;55412;51.350;17.056;2022-10-28T15:45:51;9.00;;;1.25;;
68432;SDS011;55412;51.350;17.056;2022-10-28T15:48:21;8.65;;;2.03;;
68432;SDS011;55412;51.350;17.056;2022-10-28T15:51:11;7.25;;;1.60;;
68432;SDS011;55412;51.350;17.056;2022-10-28T15:53:45;8.13;;;2.10;;
68432;SDS011;55412;51.350;17.056;2022-10-28T15:56:19;7.83;;;2.03;;
68432;SDS011;55412;51.350;17.056;2022-10-28T15:59:00;10.20;;;1.58;;
68432;SDS011;55412;51.350;17.056;2022-10-28T16:04:05;6.53;;;1.63;;
68432;SDS011;55412;51.350;17.056;2022-10-28T16:07:06;8.02;;;2.40;;
68432;SDS011;55412;51.350;17.056;2022-10-28T16:09:34;9.17;;;1.90;;
68432;SDS011;55412;51.350;17.056;2022-10-28T16:14:42;10.27;;;2.28;;
68432;SDS011;55412;51.350;17.056;2022-10-28T16:22:39;11.17;;;1.80;;
68432;SDS011;55412;51.350;17.056;2022-10-28T16:25:16;10.05;;;2.55;;
68432;SDS011;55412;51.350;17.056;2022-10-28T16:27:44;7.70;;;1.92;;
68432;SDS011;55412;51.350;17.056;2022-10-28T16:30:11;6.88;;;2.13;;
68432;SDS011;55412;51.350;17.056;2022-10-28T16:32:39;8.10;;;2.35;;
68432;SDS011;55412;51.350;17.056;2022-10-28T16:35:20;9.77;;;2.10;;
68432;SDS011;55412;51.350;17.056;2022-10-28T16:37:48;8.98;;;2.30;;
68432;SDS011;55412;51.350;17.056;2022-10-28T16:40:16;10.30;;;2.53;;
68432;SDS011;55412;51.350;17.056;2022-10-28T16:42:42;5.47;;;1.90;;
68432;SDS011;55412;51.350;17.056;2022-10-28T16:45:13;6.97;;;2.60;;
68432;SDS011;55412;51.350;17.056;2022-10-28T16:47:41;8.50;;;1.87;;
68432;SDS011;55412;51.350;17.056;2022-10-28T16:50:09;7.38;;;1.90;;
68432;SDS011;55412;51.350;17.056;2022-10-28T16:52:35;8.80;;;1.67;;
68432;SDS011;55412;51.350;17.056;2022-10-28T16:55:01;5.72;;;1.33;;
68432;SDS011;55412;51.350;17.056;2022-10-28T16:57:27;7.55;;;1.85;;
68432;SDS011;55412;51.350;17.056;2022-10-28T16:59:53;8.20;;;1.70;;
68432;SDS011;55412;51.350;17.056;2022-10-28T17:04:56;10.32;;;2.10;;
68432;SDS011;55412;51.350;17.056;2022-10-28T17:07:24;6.13;;;1.15;;
68432;SDS011;55412;51.350;17.056;2022-10-28T17:09:51;5.78;;;1.65;;
68432;SDS011;55412;51.350;17.056;2022-10-28T17:12:18;7.87;;;1.53;;
68432;SDS011;55412;51.350;17.056;2022-10-28T17:14:46;6.40;;;1.85;;
68432;SDS011;55412;51.350;17.056;2022-10-28T17:17:13;8.82;;;2.58;;
68432;SDS011;55412;51.350;17.056;2022-10-28T17:19:40;6.38;;;1.60;;
68432;SDS011;55412;51.350;17.056;2022-10-28T17:22:09;5.10;;;1.88;;
68432;SDS011;55412;51.350;17.056;2022-10-28T17:24:37;5.80;;;1.50;;
68432;SDS011;55412;51.350;17.056;2022-10-28T17:27:03;10.57;;;1.88;;
68432;SDS011;55412;51.350;17.056;2022-10-28T17:29:31;7.05;;;2.28;;
68432;SDS011;55412;51.350;17.056;2022-10-28T17:31:57;4.85;;;1.15;;
68432;SDS011;55412;51.350;17.056;2022-10-28T17:34:24;6.97;;;1.80;;
68432;SDS011;55412;51.350;17.056;2022-10-28T17:36:50;8.67;;;1.27;;
68432;SDS011;55412;51.350;17.056;2022-10-28T17:39:16;8.73;;;1.42;;
68432;SDS011;55412;51.350;17.056;2022-10-28T17:41:43;6.45;;;1.50;;
68432;SDS011;55412;51.350;17.056;2022-10-28T17:44:10;4.30;;;0.98;;
68432;SDS011;55412;51.350;17.056;2022-10-28T17:46:36;13.83;;;1.93;;
68432;SDS011;55412;51.350;17.056;2022-10-28T17:49:02;7.53;;;1.80;;
68432;SDS011;55412;51.350;17.056;2022-10-28T17:51:36;5.70;;;1.27;;
68432;SDS011;55412;51.350;17.056;2022-10-28T17:54:02;7.30;;;1.42;;
68432;SDS011;55412;51.350;17.056;2022-10-28T17:56:30;11.82;;;1.50;;
68432;SDS011;55412;51.350;17.056;2022-10-28T17:59:00;8.32;;;2.20;;
68432;SDS011;55412;51.350;17.056;2022-10-28T18:01:27;6.33;;;2.20;;